sensor_id;sensor_type;location;lat;lon;timestamp;temperature;humidity
1704;DHT22;849;48.780;9.216;2023-03-01T00:01:50;3.00;84.10
1704;DHT22;849;48.780;9.216;2023-03-01T00:04:16;2.90;84.70
1704;DHT22;849;48.780;9.216;2023-03-01T00:06:44;2.90;84.60
1704;DHT22;849;48.780;9.216;2023-03-01T00:09:14;2.90;84.80
1704;DHT22;849;48.780;9.216;2023-03-01T00:11:41;3.00;84.60
1704;DHT22;849;48.780;9.216;2023-03-01T00:14:07;3.00;84.50
1704;DHT22;849;48.780;9.216;2023-03-01T00:16:35;3.00;85.00
1704;DHT22;849;48.780;9.216;2023-03-01T00:19:02;3.00;84.70
1704;DHT22;849;48.780;9.216;2023-03-01T00:21:28;3.00;84.70
1704;DHT22;849;48.780;9.216;2023-03-01T00:23:54;3.00;84.90
1704;DHT22;849;48.780;9.216;2023-03-01T00:26:22;3.10;84.80
1704;DHT22;849;48.780;9.216;2023-03-01T00:28:48;3.10;84.50
1704;DHT22;849;48.780;9.216;2023-03-01T00:31:17;3.10;84.40
1704;DHT22;849;48.780;9.216;2023-03-01T00:33:43;3.10;84.40
1704;DHT22;849;48.780;9.216;2023-03-01T00:36:11;3.10;84.10
1704;DHT22;849;48.780;9.216;2023-03-01T00:38:42;3.10;84.40
1704;DHT22;849;48.780;9.216;2023-03-01T00:41:14;3.00;84.30
1704;DHT22;849;48.780;9.216;2023-03-01T00:43:40;2.80;85.10
1704;DHT22;849;48.780;9.216;2023-03-01T00:46:11;2.70;84.80
1704;DHT22;849;48.780;9.216;2023-03-01T00:48:37;2.60;85.40
1704;DHT22;849;48.780;9.216;2023-03-01T00:51:39;2.30;86.80
1704;DHT22;849;48.780;9.216;2023-03-01T00:53:59;2.30;87.30
1704;DHT22;849;48.780;9.216;2023-03-01T00:56:26;2.40;87.50
1704;DHT22;849;48.780;9.216;2023-03-01T00:58:52;2.60;87.30
1704;DHT22;849;48.780;9.216;2023-03-01T01:01:20;2.50;86.70
1704;DHT22;849;48.780;9.216;2023-03-01T01:06:26;2.70;87.10
1704;DHT22;849;48.780;9.216;2023-03-01T01:08:53;2.70;86.60
1704;DHT22;849;48.780;9.216;2023-03-01T01:11:21;2.70;86.40
1704;DHT22;849;48.780;9.216;2023-03-01T01:13:48;2.70;87.10
1704;DHT22;849;48.780;9.216;2023-03-01T01:16:14;2.70;86.30
1704;DHT22;849;48.780;9.216;2023-03-01T01:18:40;2.60;86.80
1704;DHT22;849;48.780;9.216;2023-03-01T01:21:09;2.60;87.10
1704;DHT22;849;48.780;9.216;2023-03-01T01:23:36;2.60;86.90
1704;DHT22;849;48.780;9.216;2023-03-01T01:26:20;2.70;86.90
1704;DHT22;849;48.780;9.216;2023-03-01T01:28:46;2.60;86.30
1704;DHT22;849;48.780;9.216;2023-03-01T01:31:12;2.60;86.80
1704;DHT22;849;48.780;9.216;2023-03-01T01:33:38;2.50;86.90
1704;DHT22;849;48.780;9.216;2023-03-01T01:36:05;2.60;87.20
1704;DHT22;849;48.780;9.216;2023-03-01T01:38:31;2.50;87.90
1704;DHT22;849;48.780;9.216;2023-03-01T01:40:56;2.60;87.60
1704;DHT22;849;48.780;9.216;2023-03-01T01:43:35;2.60;87.30
1704;DHT22;849;48.780;9.216;2023-03-01T01:46:04;2.70;87.60
1704;DHT22;849;48.780;9.216;2023-03-01T01:48:42;2.70;87.20
1704;DHT22;849;48.780;9.216;2023-03-01T01:51:15;2.70;87.00
1704;DHT22;849;48.780;9.216;2023-03-01T01:53:42;2.60;87.20
1704;DHT22;849;48.780;9.216;2023-03-01T01:56:11;2.40;88.00
1704;DHT22;849;48.780;9.216;2023-03-01T01:58:38;2.50;89.00
1704;DHT22;849;48.780;9.216;2023-03-01T02:01:05;2.60;89.50
1704;DHT22;849;48.780;9.216;2023-03-01T02:03:32;2.70;89.30
1704;DHT22;849;48.780;9.216;2023-03-01T02:06:25;2.70;89.70
1704;DHT22;849;48.780;9.216;2023-03-01T02:09:05;2.70;90.00
1704;DHT22;849;48.780;9.216;2023-03-01T02:11:32;2.30;90.60
1704;DHT22;849;48.780;9.216;2023-03-01T02:13:59;2.30;91.10
1704;DHT22;849;48.780;9.216;2023-03-01T02:16:26;2.50;91.30
1704;DHT22;849;48.780;9.216;2023-03-01T02:18:52;2.70;91.40
1704;DHT22;849;48.780;9.216;2023-03-01T02:24:35;2.90;91.50
1704;DHT22;849;48.780;9.216;2023-03-01T02:27:05;3.00;91.50
1704;DHT22;849;48.780;9.216;2023-03-01T02:29:31;3.00;91.40
1704;DHT22;849;48.780;9.216;2023-03-01T02:32:00;3.00;91.60
1704;DHT22;849;48.780;9.216;2023-03-01T02:34:27;3.00;91.50
1704;DHT22;849;48.780;9.216;2023-03-01T02:37:01;3.00;91.70
1704;DHT22;849;48.780;9.216;2023-03-01T02:39:40;3.20;91.60
1704;DHT22;849;48.780;9.216;2023-03-01T02:42:11;3.20;91.50
1704;DHT22;849;48.780;9.216;2023-03-01T02:44:37;3.20;91.80
1704;DHT22;849;48.780;9.216;2023-03-01T02:47:04;3.30;91.80
1704;DHT22;849;48.780;9.216;2023-03-01T02:49:32;3.30;91.70
1704;DHT22;849;48.780;9.216;2023-03-01T02:55:01;3.50;91.50
1704;DHT22;849;48.780;9.216;2023-03-01T02:57:29;3.50;91.40
1704;DHT22;849;48.780;9.216;2023-03-01T02:59:57;3.60;91.40
1704;DHT22;849;48.780;9.216;2023-03-01T03:02:27;3.60;91.20
1704;DHT22;849;48.780;9.216;2023-03-01T03:05:08;3.60;91.30
1704;DHT22;849;48.780;9.216;2023-03-01T03:07:37;3.60;91.00
1704;DHT22;849;48.780;9.216;2023-03-01T03:10:05;3.70;91.10
1704;DHT22;849;48.780;9.216;2023-03-01T03:12:31;3.70;90.90
1704;DHT22;849;48.780;9.216;2023-03-01T03:14:57;3.70;90.90
1704;DHT22;849;48.780;9.216;2023-03-01T03:17:23;3.70;90.90
1704;DHT22;849;48.780;9.216;2023-03-01T03:19:48;3.70;90.90
1704;DHT22;849;48.780;9.216;2023-03-01T03:22:14;3.70;91.00
1704;DHT22;849;48.780;9.216;2023-03-01T03:24:40;3.80;91.10
1704;DHT22;849;48.780;9.216;2023-03-01T03:27:06;3.70;91.00
1704;DHT22;849;48.780;9.216;2023-03-01T03:29:32;3.70;91.00
1704;DHT22;849;48.780;9.216;2023-03-01T03:31:58;3.60;91.20
1704;DHT22;849;48.780;9.216;2023-03-01T03:34:24;3.60;91.30
1704;DHT22;849;48.780;9.216;2023-03-01T03:36:54;3.70;91.40
1704;DHT22;849;48.780;9.216;2023-03-01T03:39:26;3.70;91.40
1704;DHT22;849;48.780;9.216;2023-03-01T03:41:53;3.70;91.40
1704;DHT22;849;48.780;9.216;2023-03-01T03:44:20;3.70;91.60
1704;DHT22;849;48.780;9.216;2023-03-01T03:46:46;3.70;91.50
1704;DHT22;849;48.780;9.216;2023-03-01T03:49:11;3.80;91.60
1704;DHT22;849;48.780;9.216;2023-03-01T03:51:37;3.90;91.80
1704;DHT22;849;48.780;9.216;2023-03-01T03:54:03;4.00;91.90
1704;DHT22;849;48.780;9.216;2023-03-01T03:56:28;3.90;91.80
1704;DHT22;849;48.780;9.216;2023-03-01T03:58:54;3.90;92.10
1704;DHT22;849;48.780;9.216;2023-03-01T04:01:20;4.00;91.90
1704;DHT22;849;48.780;9.216;2023-03-01T04:03:45;4.00;91.50
1704;DHT22;849;48.780;9.216;2023-03-01T04:06:19;4.00;91.70
1704;DHT22;849;48.780;9.216;2023-03-01T04:08:45;4.00;91.80
1704;DHT22;849;48.780;9.216;2023-03-01T04:11:11;3.80;91.60
1704;DHT22;849;48.780;9.216;2023-03-01T04:13:53;3.80;91.80
1704;DHT22;849;48.780;9.216;2023-03-01T04:16:19;3.70;92.20
1704;DHT22;849;48.780;9.216;2023-03-01T04:18:45;3.80;92.60
1704;DHT22;849;48.780;9.216;2023-03-01T04:21:11;3.90;92.50
1704;DHT22;849;48.780;9.216;2023-03-01T04:23:37;3.80;92.20
1704;DHT22;849;48.780;9.216;2023-03-01T04:26:03;3.80;92.50
1704;DHT22;849;48.780;9.216;2023-03-01T04:28:32;3.90;92.70
1704;DHT22;849;48.780;9.216;2023-03-01T04:31:12;3.90;92.40
1704;DHT22;849;48.780;9.216;2023-03-01T04:33:48;4.00;92.20
1704;DHT22;849;48.780;9.216;2023-03-01T04:36:16;3.90;92.00
1704;DHT22;849;48.780;9.216;2023-03-01T04:38:42;3.90;92.00
1704;DHT22;849;48.780;9.216;2023-03-01T04:41:13;3.90;91.80
1704;DHT22;849;48.780;9.216;2023-03-01T04:43:39;3.90;92.00
1704;DHT22;849;48.780;9.216;2023-03-01T04:46:07;3.90;92.00
1704;DHT22;849;48.780;9.216;2023-03-01T04:48:36;3.80;91.90
1704;DHT22;849;48.780;9.216;2023-03-01T04:51:02;3.60;91.30
1704;DHT22;849;48.780;9.216;2023-03-01T04:53:28;3.70;91.30
1704;DHT22;849;48.780;9.216;2023-03-01T04:55:57;3.70;91.50
1704;DHT22;849;48.780;9.216;2023-03-01T04:58:24;3.80;91.90
1704;DHT22;849;48.780;9.216;2023-03-01T05:00:49;3.90;92.20
1704;DHT22;849;48.780;9.216;2023-03-01T05:03:15;4.00;92.00
1704;DHT22;849;48.780;9.216;2023-03-01T05:05:44;4.00;91.20
1704;DHT22;849;48.780;9.216;2023-03-01T05:08:10;3.80;91.40
1704;DHT22;849;48.780;9.216;2023-03-01T05:10:45;3.90;91.60
1704;DHT22;849;48.780;9.216;2023-03-01T05:13:12;3.60;91.40
1704;DHT22;849;48.780;9.216;2023-03-01T05:15:48;3.50;91.50
1704;DHT22;849;48.780;9.216;2023-03-01T05:18:14;3.60;91.60
1704;DHT22;849;48.780;9.216;2023-03-01T05:20:40;3.70;91.90
1704;DHT22;849;48.780;9.216;2023-03-01T05:23:06;3.40;92.10
1704;DHT22;849;48.780;9.216;2023-03-01T05:25:33;3.60;92.50
1704;DHT22;849;48.780;9.216;2023-03-01T05:28:00;3.80;92.40
1704;DHT22;849;48.780;9.216;2023-03-01T05:30:31;3.90;92.20
1704;DHT22;849;48.780;9.216;2023-03-01T05:32:56;3.90;92.00
1704;DHT22;849;48.780;9.216;2023-03-01T05:35:22;4.00;92.10
1704;DHT22;849;48.780;9.216;2023-03-01T05:37:49;4.10;92.10
1704;DHT22;849;48.780;9.216;2023-03-01T05:40:21;4.10;91.80
1704;DHT22;849;48.780;9.216;2023-03-01T05:42:49;3.90;91.40
1704;DHT22;849;48.780;9.216;2023-03-01T05:45:16;3.90;91.70
1704;DHT22;849;48.780;9.216;2023-03-01T05:47:44;3.90;91.40
1704;DHT22;849;48.780;9.216;2023-03-01T05:50:24;3.90;90.90
1704;DHT22;849;48.780;9.216;2023-03-01T05:53:14;3.90;90.40
1704;DHT22;849;48.780;9.216;2023-03-01T05:55:38;3.80;90.50
1704;DHT22;849;48.780;9.216;2023-03-01T05:58:09;3.80;90.80
1704;DHT22;849;48.780;9.216;2023-03-01T06:00:35;3.90;90.80
1704;DHT22;849;48.780;9.216;2023-03-01T06:03:01;3.90;90.70
1704;DHT22;849;48.780;9.216;2023-03-01T06:05:27;3.80;90.70
1704;DHT22;849;48.780;9.216;2023-03-01T06:07:53;3.80;90.50
1704;DHT22;849;48.780;9.216;2023-03-01T06:10:20;3.80;90.60
1704;DHT22;849;48.780;9.216;2023-03-01T06:12:46;3.80;90.50
1704;DHT22;849;48.780;9.216;2023-03-01T06:15:14;3.80;90.10
1704;DHT22;849;48.780;9.216;2023-03-01T06:17:42;3.90;90.20
1704;DHT22;849;48.780;9.216;2023-03-01T06:20:17;3.90;90.20
1704;DHT22;849;48.780;9.216;2023-03-01T06:22:43;3.90;90.00
1704;DHT22;849;48.780;9.216;2023-03-01T06:25:10;4.00;90.30
1704;DHT22;849;48.780;9.216;2023-03-01T06:27:36;3.90;90.30
1704;DHT22;849;48.780;9.216;2023-03-01T06:30:02;3.70;90.40
1704;DHT22;849;48.780;9.216;2023-03-01T06:32:28;3.60;90.50
1704;DHT22;849;48.780;9.216;2023-03-01T06:34:54;3.60;90.70
1704;DHT22;849;48.780;9.216;2023-03-01T06:37:19;3.60;90.80
1704;DHT22;849;48.780;9.216;2023-03-01T06:39:45;3.80;91.00
1704;DHT22;849;48.780;9.216;2023-03-01T06:42:10;3.80;90.60
1704;DHT22;849;48.780;9.216;2023-03-01T06:44:37;3.90;90.60
1704;DHT22;849;48.780;9.216;2023-03-01T06:47:03;4.00;90.40
1704;DHT22;849;48.780;9.216;2023-03-01T06:49:28;4.00;90.10
1704;DHT22;849;48.780;9.216;2023-03-01T06:51:55;3.80;90.10
1704;DHT22;849;48.780;9.216;2023-03-01T06:54:21;3.70;90.40
1704;DHT22;849;48.780;9.216;2023-03-01T06:56:50;3.70;90.50
1704;DHT22;849;48.780;9.216;2023-03-01T06:59:17;3.70;90.60
1704;DHT22;849;48.780;9.216;2023-03-01T07:01:42;3.70;90.20
1704;DHT22;849;48.780;9.216;2023-03-01T07:04:09;3.50;90.20
1704;DHT22;849;48.780;9.216;2023-03-01T07:06:35;3.60;90.40
1704;DHT22;849;48.780;9.216;2023-03-01T07:09:01;3.50;90.40
1704;DHT22;849;48.780;9.216;2023-03-01T07:11:26;3.40;90.60
1704;DHT22;849;48.780;9.216;2023-03-01T07:13:52;3.50;90.60
1704;DHT22;849;48.780;9.216;2023-03-01T07:16:18;3.50;90.50
1704;DHT22;849;48.780;9.216;2023-03-01T07:18:45;3.40;90.40
1704;DHT22;849;48.780;9.216;2023-03-01T07:21:13;3.20;90.80
1704;DHT22;849;48.780;9.216;2023-03-01T07:23:39;3.30;91.30
1704;DHT22;849;48.780;9.216;2023-03-01T07:26:04;3.40;91.10
1704;DHT22;849;48.780;9.216;2023-03-01T07:28:30;3.50;91.10
1704;DHT22;849;48.780;9.216;2023-03-01T07:31:04;3.70;91.40
1704;DHT22;849;48.780;9.216;2023-03-01T07:33:30;3.70;90.40
1704;DHT22;849;48.780;9.216;2023-03-01T07:36:00;3.80;90.30
1704;DHT22;849;48.780;9.216;2023-03-01T07:38:27;3.60;90.20
1704;DHT22;849;48.780;9.216;2023-03-01T07:40:53;3.60;90.40
1704;DHT22;849;48.780;9.216;2023-03-01T07:43:19;3.60;90.40
1704;DHT22;849;48.780;9.216;2023-03-01T07:45:46;3.80;90.50
1704;DHT22;849;48.780;9.216;2023-03-01T07:48:11;3.80;90.20
1704;DHT22;849;48.780;9.216;2023-03-01T07:50:37;3.90;90.10
1704;DHT22;849;48.780;9.216;2023-03-01T07:53:02;3.90;90.00
1704;DHT22;849;48.780;9.216;2023-03-01T07:55:28;3.80;90.10
1704;DHT22;849;48.780;9.216;2023-03-01T07:57:54;3.70;90.40
1704;DHT22;849;48.780;9.216;2023-03-01T08:00:20;3.70;90.40
1704;DHT22;849;48.780;9.216;2023-03-01T08:02:49;3.80;90.50
1704;DHT22;849;48.780;9.216;2023-03-01T08:05:15;3.90;90.20
1704;DHT22;849;48.780;9.216;2023-03-01T08:07:41;3.90;90.10
1704;DHT22;849;48.780;9.216;2023-03-01T08:10:07;3.90;90.00
1704;DHT22;849;48.780;9.216;2023-03-01T08:12:33;3.90;90.00
1704;DHT22;849;48.780;9.216;2023-03-01T08:14:59;3.90;90.00
1704;DHT22;849;48.780;9.216;2023-03-01T08:17:24;3.90;90.00
1704;DHT22;849;48.780;9.216;2023-03-01T08:19:50;3.90;90.20
1704;DHT22;849;48.780;9.216;2023-03-01T08:22:16;3.90;90.00
1704;DHT22;849;48.780;9.216;2023-03-01T08:24:41;3.80;89.70
1704;DHT22;849;48.780;9.216;2023-03-01T08:27:07;3.70;90.00
1704;DHT22;849;48.780;9.216;2023-03-01T08:29:33;3.70;90.50
1704;DHT22;849;48.780;9.216;2023-03-01T08:31:59;3.70;90.40
1704;DHT22;849;48.780;9.216;2023-03-01T08:34:25;3.80;90.30
1704;DHT22;849;48.780;9.216;2023-03-01T08:36:51;3.80;90.20
1704;DHT22;849;48.780;9.216;2023-03-01T08:39:19;3.80;90.20
1704;DHT22;849;48.780;9.216;2023-03-01T08:41:46;3.60;90.20
1704;DHT22;849;48.780;9.216;2023-03-01T08:44:13;3.60;90.40
1704;DHT22;849;48.780;9.216;2023-03-01T08:46:41;3.50;90.30
1704;DHT22;849;48.780;9.216;2023-03-01T08:49:12;3.60;90.40
1704;DHT22;849;48.780;9.216;2023-03-01T08:51:39;3.60;90.20
1704;DHT22;849;48.780;9.216;2023-03-01T08:54:06;3.50;90.50
1704;DHT22;849;48.780;9.216;2023-03-01T08:56:32;3.50;90.90
1704;DHT22;849;48.780;9.216;2023-03-01T08:58:58;3.70;90.70
1704;DHT22;849;48.780;9.216;2023-03-01T09:01:24;3.80;90.40
1704;DHT22;849;48.780;9.216;2023-03-01T09:03:49;3.90;90.40
1704;DHT22;849;48.780;9.216;2023-03-01T09:06:15;3.90;90.20
1704;DHT22;849;48.780;9.216;2023-03-01T09:08:44;4.00;90.10
1704;DHT22;849;48.780;9.216;2023-03-01T09:11:13;3.90;90.00
1704;DHT22;849;48.780;9.216;2023-03-01T09:13:40;3.90;89.80
1704;DHT22;849;48.780;9.216;2023-03-01T09:16:07;3.90;90.00
1704;DHT22;849;48.780;9.216;2023-03-01T09:18:34;4.00;90.00
1704;DHT22;849;48.780;9.216;2023-03-01T09:21:12;4.00;89.80
1704;DHT22;849;48.780;9.216;2023-03-01T09:23:40;4.00;88.90
1704;DHT22;849;48.780;9.216;2023-03-01T09:26:08;4.10;88.40
1704;DHT22;849;48.780;9.216;2023-03-01T09:28:35;4.00;89.30
1704;DHT22;849;48.780;9.216;2023-03-01T09:31:02;4.10;89.90
1704;DHT22;849;48.780;9.216;2023-03-01T09:33:32;4.10;89.30
1704;DHT22;849;48.780;9.216;2023-03-01T09:35:59;4.30;89.10
1704;DHT22;849;48.780;9.216;2023-03-01T09:38:25;4.30;89.20
1704;DHT22;849;48.780;9.216;2023-03-01T09:40:51;4.40;89.60
1704;DHT22;849;48.780;9.216;2023-03-01T09:45:53;4.50;88.30
1704;DHT22;849;48.780;9.216;2023-03-01T09:48:23;4.40;86.80
1704;DHT22;849;48.780;9.216;2023-03-01T09:50:51;4.60;86.20
1704;DHT22;849;48.780;9.216;2023-03-01T09:53:20;4.70;85.30
1704;DHT22;849;48.780;9.216;2023-03-01T09:56:02;4.60;84.70
1704;DHT22;849;48.780;9.216;2023-03-01T10:01:30;4.80;83.80
1704;DHT22;849;48.780;9.216;2023-03-01T10:06:44;5.10;83.00
1704;DHT22;849;48.780;9.216;2023-03-01T10:09:13;5.20;83.20
1704;DHT22;849;48.780;9.216;2023-03-01T10:11:52;5.10;82.70
1704;DHT22;849;48.780;9.216;2023-03-01T10:14:39;5.00;82.70
1704;DHT22;849;48.780;9.216;2023-03-01T10:20:22;5.20;83.00
1704;DHT22;849;48.780;9.216;2023-03-01T10:22:48;5.30;82.30
1704;DHT22;849;48.780;9.216;2023-03-01T10:25:43;5.40;81.70
1704;DHT22;849;48.780;9.216;2023-03-01T10:30:53;5.50;81.90
1704;DHT22;849;48.780;9.216;2023-03-01T10:33:25;5.60;81.40
1704;DHT22;849;48.780;9.216;2023-03-01T10:35:51;5.50;81.20
1704;DHT22;849;48.780;9.216;2023-03-01T10:38:18;5.60;80.90
1704;DHT22;849;48.780;9.216;2023-03-01T10:40:57;5.60;80.20
1704;DHT22;849;48.780;9.216;2023-03-01T10:43:24;5.60;80.50
1704;DHT22;849;48.780;9.216;2023-03-01T10:45:51;5.70;80.60
1704;DHT22;849;48.780;9.216;2023-03-01T10:48:21;5.70;81.20
1704;DHT22;849;48.780;9.216;2023-03-01T10:51:12;5.90;80.50
1704;DHT22;849;48.780;9.216;2023-03-01T10:53:48;5.90;78.90
1704;DHT22;849;48.780;9.216;2023-03-01T10:56:15;5.90;80.00
1704;DHT22;849;48.780;9.216;2023-03-01T11:01:27;5.90;80.20
1704;DHT22;849;48.780;9.216;2023-03-01T11:06:29;6.10;78.70
1704;DHT22;849;48.780;9.216;2023-03-01T11:08:54;6.20;79.10
1704;DHT22;849;48.780;9.216;2023-03-01T11:11:34;6.30;78.70
1704;DHT22;849;48.780;9.216;2023-03-01T11:14:07;6.40;78.90
1704;DHT22;849;48.780;9.216;2023-03-01T11:16:40;6.50;78.20
1704;DHT22;849;48.780;9.216;2023-03-01T11:24:12;6.60;77.60
1704;DHT22;849;48.780;9.216;2023-03-01T11:26:45;6.70;77.10
1704;DHT22;849;48.780;9.216;2023-03-01T11:29:29;6.80;76.20
1704;DHT22;849;48.780;9.216;2023-03-01T11:32:01;6.70;76.20
1704;DHT22;849;48.780;9.216;2023-03-01T11:34:50;6.80;76.50
1704;DHT22;849;48.780;9.216;2023-03-01T11:37:32;6.80;76.40
1704;DHT22;849;48.780;9.216;2023-03-01T11:40:25;6.80;75.00
1704;DHT22;849;48.780;9.216;2023-03-01T11:43:21;6.70;75.40
1704;DHT22;849;48.780;9.216;2023-03-01T11:48:27;6.70;76.60
1704;DHT22;849;48.780;9.216;2023-03-01T11:51:02;6.80;75.50
1704;DHT22;849;48.780;9.216;2023-03-01T11:53:34;6.70;75.70
1704;DHT22;849;48.780;9.216;2023-03-01T11:58:40;7.00;76.50
1704;DHT22;849;48.780;9.216;2023-03-01T12:12:02;7.20;74.50
1704;DHT22;849;48.780;9.216;2023-03-01T12:17:40;7.40;73.80
1704;DHT22;849;48.780;9.216;2023-03-01T12:20:41;7.50;73.00
1704;DHT22;849;48.780;9.216;2023-03-01T12:23:38;7.60;73.00
1704;DHT22;849;48.780;9.216;2023-03-01T12:26:32;7.60;72.90
1704;DHT22;849;48.780;9.216;2023-03-01T12:29:14;7.70;74.20
1704;DHT22;849;48.780;9.216;2023-03-01T12:34:53;7.60;73.40
1704;DHT22;849;48.780;9.216;2023-03-01T12:42:50;7.80;72.80
1704;DHT22;849;48.780;9.216;2023-03-01T12:45:49;7.80;73.60
1704;DHT22;849;48.780;9.216;2023-03-01T12:48:43;7.80;72.30
1704;DHT22;849;48.780;9.216;2023-03-01T12:51:19;7.90;73.20
1704;DHT22;849;48.780;9.216;2023-03-01T12:53:51;8.20;71.80
1704;DHT22;849;48.780;9.216;2023-03-01T12:56:24;8.30;71.40
1704;DHT22;849;48.780;9.216;2023-03-01T13:11:53;8.40;70.70
1704;DHT22;849;48.780;9.216;2023-03-01T13:16:53;8.70;70.90
1704;DHT22;849;48.780;9.216;2023-03-01T13:19:25;8.80;69.40
1704;DHT22;849;48.780;9.216;2023-03-01T13:21:53;8.70;69.40
1704;DHT22;849;48.780;9.216;2023-03-01T13:24:41;8.80;70.00
1704;DHT22;849;48.780;9.216;2023-03-01T13:29:50;8.70;69.60
1704;DHT22;849;48.780;9.216;2023-03-01T13:32:31;8.70;70.40
1704;DHT22;849;48.780;9.216;2023-03-01T13:37:43;8.80;69.30
1704;DHT22;849;48.780;9.216;2023-03-01T13:42:54;8.70;69.50
1704;DHT22;849;48.780;9.216;2023-03-01T13:45:24;8.80;70.00
1704;DHT22;849;48.780;9.216;2023-03-01T13:47:57;8.80;69.30
1704;DHT22;849;48.780;9.216;2023-03-01T13:50:29;8.70;70.10
1704;DHT22;849;48.780;9.216;2023-03-01T13:53:02;8.80;69.50
1704;DHT22;849;48.780;9.216;2023-03-01T13:55:38;9.00;69.80
1704;DHT22;849;48.780;9.216;2023-03-01T13:58:23;8.90;69.40
1704;DHT22;849;48.780;9.216;2023-03-01T14:01:20;9.00;68.70
1704;DHT22;849;48.780;9.216;2023-03-01T14:03:47;8.90;68.80
1704;DHT22;849;48.780;9.216;2023-03-01T14:06:16;9.00;70.10
1704;DHT22;849;48.780;9.216;2023-03-01T14:08:44;9.00;68.90
1704;DHT22;849;48.780;9.216;2023-03-01T14:19:25;8.60;69.50
1704;DHT22;849;48.780;9.216;2023-03-01T14:22:20;8.70;70.20
1704;DHT22;849;48.780;9.216;2023-03-01T14:24:59;8.50;69.90
1704;DHT22;849;48.780;9.216;2023-03-01T14:27:28;8.80;70.30
1704;DHT22;849;48.780;9.216;2023-03-01T14:30:00;8.90;69.90
1704;DHT22;849;48.780;9.216;2023-03-01T14:32:27;9.00;69.40
1704;DHT22;849;48.780;9.216;2023-03-01T14:34:54;9.00;69.60
1704;DHT22;849;48.780;9.216;2023-03-01T14:39:51;8.60;70.10
1704;DHT22;849;48.780;9.216;2023-03-01T14:42:17;8.60;70.70
1704;DHT22;849;48.780;9.216;2023-03-01T14:44:46;8.60;70.60
1704;DHT22;849;48.780;9.216;2023-03-01T14:47:16;8.60;70.70
1704;DHT22;849;48.780;9.216;2023-03-01T14:49:45;8.90;70.80
1704;DHT22;849;48.780;9.216;2023-03-01T14:52:20;9.00;69.40
1704;DHT22;849;48.780;9.216;2023-03-01T14:54:49;9.30;69.30
1704;DHT22;849;48.780;9.216;2023-03-01T14:57:26;9.30;68.30
1704;DHT22;849;48.780;9.216;2023-03-01T14:59:54;9.40;68.70
1704;DHT22;849;48.780;9.216;2023-03-01T15:02:25;9.50;68.30
1704;DHT22;849;48.780;9.216;2023-03-01T15:04:56;9.30;68.90
1704;DHT22;849;48.780;9.216;2023-03-01T15:07:27;9.30;68.00
1704;DHT22;849;48.780;9.216;2023-03-01T15:09:54;9.50;69.50
1704;DHT22;849;48.780;9.216;2023-03-01T15:14:55;9.50;67.40
1704;DHT22;849;48.780;9.216;2023-03-01T15:17:35;9.50;67.70
1704;DHT22;849;48.780;9.216;2023-03-01T15:20:13;9.30;68.30
1704;DHT22;849;48.780;9.216;2023-03-01T15:22:44;9.30;68.30
1704;DHT22;849;48.780;9.216;2023-03-01T15:25:22;9.30;68.50
1704;DHT22;849;48.780;9.216;2023-03-01T15:27:50;9.20;68.50
1704;DHT22;849;48.780;9.216;2023-03-01T15:30:35;9.20;68.10
1704;DHT22;849;48.780;9.216;2023-03-01T15:35:53;9.20;67.80
1704;DHT22;849;48.780;9.216;2023-03-01T15:38:26;9.20;67.20
1704;DHT22;849;48.780;9.216;2023-03-01T15:40:53;9.40;66.70
1704;DHT22;849;48.780;9.216;2023-03-01T15:43:58;9.60;66.40
1704;DHT22;849;48.780;9.216;2023-03-01T15:46:28;9.80;65.50
1704;DHT22;849;48.780;9.216;2023-03-01T15:48:57;9.90;64.90
1704;DHT22;849;48.780;9.216;2023-03-01T15:51:29;10.00;63.50
1704;DHT22;849;48.780;9.216;2023-03-01T15:53:56;10.20;63.90
1704;DHT22;849;48.780;9.216;2023-03-01T15:56:23;10.30;62.80
1704;DHT22;849;48.780;9.216;2023-03-01T15:58:49;10.10;61.90
1704;DHT22;849;48.780;9.216;2023-03-01T16:01:17;9.90;64.00
1704;DHT22;849;48.780;9.216;2023-03-01T16:03:44;9.70;63.60
1704;DHT22;849;48.780;9.216;2023-03-01T16:06:10;9.50;64.40
1704;DHT22;849;48.780;9.216;2023-03-01T16:08:37;9.40;64.20
1704;DHT22;849;48.780;9.216;2023-03-01T16:11:13;9.20;64.50
1704;DHT22;849;48.780;9.216;2023-03-01T16:13:39;9.20;65.20
1704;DHT22;849;48.780;9.216;2023-03-01T16:16:05;9.30;65.60
1704;DHT22;849;48.780;9.216;2023-03-01T16:18:30;9.30;65.00
1704;DHT22;849;48.780;9.216;2023-03-01T16:20:56;9.30;64.80
1704;DHT22;849;48.780;9.216;2023-03-01T16:23:22;9.40;64.90
1704;DHT22;849;48.780;9.216;2023-03-01T16:25:50;9.40;64.30
1704;DHT22;849;48.780;9.216;2023-03-01T16:28:16;9.40;64.00
1704;DHT22;849;48.780;9.216;2023-03-01T16:30:46;9.20;64.60
1704;DHT22;849;48.780;9.216;2023-03-01T16:33:13;9.10;64.70
1704;DHT22;849;48.780;9.216;2023-03-01T16:35:40;9.00;64.20
1704;DHT22;849;48.780;9.216;2023-03-01T16:38:06;9.00;64.30
1704;DHT22;849;48.780;9.216;2023-03-01T16:40:34;9.10;64.50
1704;DHT22;849;48.780;9.216;2023-03-01T16:43:00;9.00;64.70
1704;DHT22;849;48.780;9.216;2023-03-01T16:45:28;9.10;65.30
1704;DHT22;849;48.780;9.216;2023-03-01T16:47:58;9.10;65.70
1704;DHT22;849;48.780;9.216;2023-03-01T16:50:24;9.00;65.40
1704;DHT22;849;48.780;9.216;2023-03-01T16:52:50;9.00;65.50
1704;DHT22;849;48.780;9.216;2023-03-01T16:55:16;9.10;65.60
1704;DHT22;849;48.780;9.216;2023-03-01T16:57:42;9.00;65.80
1704;DHT22;849;48.780;9.216;2023-03-01T17:00:08;8.80;66.00
1704;DHT22;849;48.780;9.216;2023-03-01T17:02:38;8.80;66.10
1704;DHT22;849;48.780;9.216;2023-03-01T17:05:05;8.80;66.20
1704;DHT22;849;48.780;9.216;2023-03-01T17:07:32;8.80;66.40
1704;DHT22;849;48.780;9.216;2023-03-01T17:10:00;8.90;66.00
1704;DHT22;849;48.780;9.216;2023-03-01T17:12:25;8.80;68.70
1704;DHT22;849;48.780;9.216;2023-03-01T17:14:51;8.70;68.10
1704;DHT22;849;48.780;9.216;2023-03-01T17:17:17;8.70;68.00
1704;DHT22;849;48.780;9.216;2023-03-01T17:19:42;8.50;68.90
1704;DHT22;849;48.780;9.216;2023-03-01T17:22:10;8.50;69.50
1704;DHT22;849;48.780;9.216;2023-03-01T17:24:37;8.60;69.40
1704;DHT22;849;48.780;9.216;2023-03-01T17:27:04;8.60;68.60
1704;DHT22;849;48.780;9.216;2023-03-01T17:29:30;8.50;71.40
1704;DHT22;849;48.780;9.216;2023-03-01T17:31:56;8.40;72.50
1704;DHT22;849;48.780;9.216;2023-03-01T17:34:22;8.30;71.90
1704;DHT22;849;48.780;9.216;2023-03-01T17:36:49;8.30;72.00
1704;DHT22;849;48.780;9.216;2023-03-01T17:39:17;8.40;70.90
1704;DHT22;849;48.780;9.216;2023-03-01T17:41:45;8.40;71.20
1704;DHT22;849;48.780;9.216;2023-03-01T17:44:11;8.40;70.80
1704;DHT22;849;48.780;9.216;2023-03-01T17:46:36;8.40;70.20
1704;DHT22;849;48.780;9.216;2023-03-01T17:49:02;8.20;71.40
1704;DHT22;849;48.780;9.216;2023-03-01T17:51:28;8.10;70.70
1704;DHT22;849;48.780;9.216;2023-03-01T17:53:54;8.00;71.70
1704;DHT22;849;48.780;9.216;2023-03-01T17:56:19;8.00;71.50
1704;DHT22;849;48.780;9.216;2023-03-01T17:58:45;7.90;71.60
1704;DHT22;849;48.780;9.216;2023-03-01T18:01:16;7.70;71.80
1704;DHT22;849;48.780;9.216;2023-03-01T18:03:43;7.60;72.00
1704;DHT22;849;48.780;9.216;2023-03-01T18:06:22;7.60;72.20
1704;DHT22;849;48.780;9.216;2023-03-01T18:08:49;7.60;72.70
1704;DHT22;849;48.780;9.216;2023-03-01T18:11:16;7.60;72.70
1704;DHT22;849;48.780;9.216;2023-03-01T18:13:42;7.50;72.70
1704;DHT22;849;48.780;9.216;2023-03-01T18:16:10;7.50;72.90
1704;DHT22;849;48.780;9.216;2023-03-01T18:18:36;7.40;73.20
1704;DHT22;849;48.780;9.216;2023-03-01T18:21:02;7.30;73.20
1704;DHT22;849;48.780;9.216;2023-03-01T18:23:29;7.30;73.70
1704;DHT22;849;48.780;9.216;2023-03-01T18:26:00;7.20;74.70
1704;DHT22;849;48.780;9.216;2023-03-01T18:28:27;7.10;74.20
1704;DHT22;849;48.780;9.216;2023-03-01T18:31:01;7.00;74.60